createdAt,value
2019-04-04T00:00:06.609Z,992.53
2019-04-04T00:01:06.598Z,992.56
2019-04-04T00:02:07.129Z,992.60
2019-04-04T00:03:06.577Z,992.57
2019-04-04T00:04:06.566Z,992.53
2019-04-04T00:05:06.557Z,992.54
2019-04-04T00:06:06.543Z,992.56
2019-04-04T00:07:06.623Z,992.49
2019-04-04T00:08:06.548Z,992.52
2019-04-04T00:09:06.510Z,992.51
2019-04-04T00:10:06.501Z,992.47
2019-04-04T00:11:06.719Z,992.52
2019-04-04T00:12:08.040Z,992.52
2019-04-04T00:13:06.467Z,992.49
2019-04-04T00:14:06.471Z,992.43
2019-04-04T00:15:06.444Z,992.45
2019-04-04T00:16:06.462Z,992.43
2019-04-04T00:17:06.427Z,992.48
2019-04-04T00:18:06.436Z,992.63
2019-04-04T00:19:06.405Z,992.49
2019-04-04T00:20:06.390Z,992.55
2019-04-04T00:21:06.379Z,992.55
2019-04-04T00:22:06.386Z,992.55
2019-04-04T00:23:06.890Z,992.53
2019-04-04T00:24:07.128Z,992.51
2019-04-04T00:25:09.785Z,992.49
2019-04-04T00:26:06.328Z,992.52
2019-04-04T00:27:06.344Z,992.52
2019-04-04T00:28:06.301Z,992.51
2019-04-04T00:29:06.296Z,992.48
2019-04-04T00:30:06.289Z,992.42
2019-04-04T00:31:06.298Z,992.38
2019-04-04T00:32:06.256Z,992.49
2019-04-04T00:33:06.266Z,992.42
2019-04-04T00:34:06.236Z,992.40
2019-04-04T00:35:06.238Z,992.35
2019-04-04T00:36:06.227Z,992.43
2019-04-04T00:37:06.222Z,992.34
2019-04-04T00:38:07.077Z,992.32
2019-04-04T00:39:09.157Z,992.40
2019-04-04T00:40:06.171Z,992.39
2019-04-04T00:41:06.162Z,992.34
2019-04-04T00:42:06.151Z,992.33
2019-04-04T00:43:06.141Z,992.32
2019-04-04T00:44:06.167Z,992.27
2019-04-04T00:45:06.125Z,992.33
2019-04-04T00:46:06.107Z,992.28
2019-04-04T00:47:06.097Z,992.32
2019-04-04T00:48:06.104Z,992.26
2019-04-04T00:49:06.106Z,992.26
2019-04-04T00:50:06.670Z,992.30
2019-04-04T00:51:08.027Z,992.22
2019-04-04T00:52:06.041Z,992.20
2019-04-04T00:53:06.031Z,992.21
2019-04-04T00:54:06.060Z,992.23
2019-04-04T00:55:06.013Z,992.17
2019-04-04T00:56:06.005Z,992.19
2019-04-04T00:57:05.995Z,992.23
2019-04-04T00:58:05.982Z,992.26
2019-04-04T00:59:05.974Z,992.18
2019-04-04T01:00:05.985Z,992.17
2019-04-04T01:01:05.945Z,992.19
2019-04-04T01:02:05.941Z,992.18
2019-04-04T01:03:05.931Z,992.18
2019-04-04T01:04:05.914Z,992.14
2019-04-04T01:05:05.928Z,992.17
2019-04-04T01:06:05.893Z,992.10
2019-04-04T01:07:05.907Z,992.06
2019-04-04T01:08:07.027Z,992.10
2019-04-04T01:09:11.806Z,992.15
2019-04-04T01:10:06.883Z,992.03
2019-04-04T01:11:05.863Z,992.17
2019-04-04T01:12:05.834Z,992.10
2019-04-04T01:13:05.819Z,992.11
2019-04-04T01:14:05.810Z,992.10
2019-04-04T01:15:05.822Z,992.14
2019-04-04T01:16:05.795Z,992.10
2019-04-04T01:17:05.787Z,992.06
2019-04-04T01:18:06.059Z,992.09
2019-04-04T01:19:05.761Z,992.07
2019-04-04T01:20:05.772Z,992.09
2019-04-04T01:21:05.763Z,992.07
2019-04-04T01:22:05.732Z,992.05
2019-04-04T01:23:05.727Z,992.03
2019-04-04T01:24:05.704Z,992.04
2019-04-04T01:25:05.692Z,992.03
2019-04-04T01:26:05.698Z,992.02
2019-04-04T01:27:06.221Z,991.97
2019-04-04T01:28:06.111Z,992.06
2019-04-04T01:29:06.026Z,992.01
2019-04-04T01:30:05.646Z,991.98
2019-04-04T01:31:05.653Z,992.08
2019-04-04T01:32:05.620Z,992.01
2019-04-04T01:33:05.607Z,992.03
2019-04-04T01:34:05.609Z,992.00
2019-04-04T01:35:05.600Z,992.05
2019-04-04T01:36:05.599Z,992.04
2019-04-04T01:37:05.564Z,992.10
2019-04-04T01:38:05.553Z,992.04
2019-04-04T01:39:05.543Z,992.05
2019-04-04T01:40:05.556Z,992.02
2019-04-04T01:41:05.561Z,992.03
2019-04-04T01:42:07.171Z,992.02
2019-04-04T01:43:08.817Z,992.01
2019-04-04T01:44:05.636Z,991.96
2019-04-04T01:45:05.479Z,991.98
2019-04-04T01:46:05.471Z,991.96
2019-04-04T01:47:05.474Z,991.98
2019-04-04T01:48:05.455Z,991.95
2019-04-04T01:49:05.441Z,992.00
2019-04-04T01:50:05.432Z,991.91
2019-04-04T01:51:07.803Z,992.04
2019-04-04T01:52:05.430Z,992.03
2019-04-04T01:53:05.421Z,992.03
2019-04-04T01:54:05.387Z,992.03
2019-04-04T01:55:05.385Z,992.12
2019-04-04T01:56:06.783Z,992.09
2019-04-04T01:57:07.824Z,992.15
2019-04-04T01:58:05.359Z,992.08
2019-04-04T01:59:05.326Z,992.10
2019-04-04T02:00:05.324Z,992.09
2019-04-04T02:01:05.312Z,992.03
2019-04-04T02:02:05.301Z,992.07
2019-04-04T02:03:05.324Z,992.10
2019-04-04T02:04:05.294Z,992.07
2019-04-04T02:05:05.266Z,992.03
2019-04-04T02:06:05.258Z,992.05
2019-04-04T02:07:05.248Z,992.09
2019-04-04T02:08:05.229Z,992.10
2019-04-04T02:09:05.239Z,992.14
2019-04-04T02:10:05.960Z,992.15
2019-04-04T02:11:05.875Z,992.21
2019-04-04T02:12:07.692Z,992.22
2019-04-04T02:13:05.219Z,992.21
2019-04-04T02:14:05.170Z,992.31
2019-04-04T02:15:05.162Z,992.34
2019-04-04T02:16:05.190Z,992.35
2019-04-04T02:17:05.138Z,992.38
2019-04-04T02:18:05.123Z,992.41
2019-04-04T02:19:05.146Z,992.34
2019-04-04T02:20:05.106Z,992.31
2019-04-04T02:21:05.099Z,992.30
2019-04-04T02:22:05.081Z,992.30
2019-04-04T02:23:05.070Z,992.26
2019-04-04T02:24:05.066Z,992.17
2019-04-04T02:25:05.075Z,992.18
2019-04-04T02:26:05.755Z,992.18
2019-04-04T02:27:06.940Z,992.17
2019-04-04T02:28:05.015Z,992.15
2019-04-04T02:29:05.006Z,992.17
2019-04-04T02:30:05.021Z,992.15
2019-04-04T02:31:04.990Z,992.17
2019-04-04T02:32:04.980Z,992.20
2019-04-04T02:33:05.046Z,992.20
2019-04-04T02:34:06.374Z,992.09
2019-04-04T02:35:04.965Z,992.06
2019-04-04T02:36:04.960Z,992.05
2019-04-04T02:37:04.923Z,991.98
2019-04-04T02:38:04.917Z,991.93
2019-04-04T02:39:04.920Z,991.85
2019-04-04T02:40:06.071Z,991.88
2019-04-04T02:41:04.893Z,991.90
2019-04-04T02:42:04.871Z,991.88
2019-04-04T02:43:04.860Z,991.92
2019-04-04T02:44:04.865Z,991.93
2019-04-04T02:45:05.642Z,991.96
2019-04-04T02:46:04.849Z,992.00
2019-04-04T02:47:04.816Z,992.05
2019-04-04T02:48:04.807Z,992.01
2019-04-04T02:49:04.791Z,992.00
2019-04-04T02:50:04.789Z,992.02
2019-04-04T02:51:08.014Z,991.95
2019-04-04T02:52:04.766Z,991.87
2019-04-04T02:53:04.769Z,991.98
2019-04-04T02:54:04.739Z,991.88
2019-04-04T02:55:04.731Z,991.94
2019-04-04T02:56:04.741Z,991.92
2019-04-04T02:57:07.969Z,991.83
2019-04-04T02:58:04.702Z,991.85
2019-04-04T02:59:04.693Z,991.83
2019-04-04T03:00:04.680Z,991.84
2019-04-04T03:01:04.760Z,991.91
2019-04-04T03:02:05.861Z,992.00
2019-04-04T03:03:08.281Z,991.98
2019-04-04T03:04:04.638Z,992.02
2019-04-04T03:05:04.628Z,991.95
2019-04-04T03:06:04.652Z,992.00
2019-04-04T03:07:04.606Z,991.96
2019-04-04T03:08:04.735Z,991.91
2019-04-04T03:09:08.880Z,991.96
2019-04-04T03:10:05.572Z,992.03
2019-04-04T03:11:04.563Z,992.00
2019-04-04T03:12:04.576Z,992.00
2019-04-04T03:13:04.537Z,992.02
2019-04-04T03:14:04.789Z,991.99
2019-04-04T03:15:06.309Z,991.98
2019-04-04T03:16:04.520Z,991.96
2019-04-04T03:17:04.524Z,991.91
2019-04-04T03:18:05.565Z,991.94
2019-04-04T03:19:04.500Z,991.99
2019-04-04T03:20:04.459Z,991.98
2019-04-04T03:21:04.448Z,991.96
2019-04-04T03:22:04.468Z,991.99
2019-04-04T03:23:04.427Z,991.97
2019-04-04T03:24:06.510Z,991.95
2019-04-04T03:25:04.417Z,992.00
2019-04-04T03:26:04.397Z,991.93
2019-04-04T03:27:04.421Z,991.98
2019-04-04T03:28:04.385Z,992.02
2019-04-04T03:29:05.751Z,992.00
2019-04-04T03:30:04.370Z,991.97
2019-04-04T03:31:04.441Z,991.90
2019-04-04T03:32:04.331Z,991.91
2019-04-04T03:33:04.338Z,991.99
2019-04-04T03:34:11.286Z,991.97
2019-04-04T03:35:05.307Z,991.98
2019-04-04T03:36:04.293Z,992.04
2019-04-04T03:37:06.566Z,992.04
2019-04-04T03:38:04.293Z,992.07
2019-04-04T03:39:04.271Z,992.09
2019-04-04T03:40:04.246Z,992.09
2019-04-04T03:41:04.234Z,992.04
2019-04-04T03:42:07.147Z,992.04
2019-04-04T03:43:04.236Z,992.03
2019-04-04T03:44:04.207Z,992.00
2019-04-04T03:45:04.214Z,991.97
2019-04-04T03:46:04.184Z,991.99
2019-04-04T03:47:04.174Z,991.95
2019-04-04T03:48:04.169Z,991.99
2019-04-04T03:49:04.179Z,991.98
2019-04-04T03:50:04.146Z,992.06
2019-04-04T03:51:05.253Z,991.99
2019-04-04T03:52:04.119Z,992.02
2019-04-04T03:53:04.121Z,992.00
2019-04-04T03:54:04.121Z,991.96
2019-04-04T03:55:04.089Z,992.02
2019-04-04T03:56:04.144Z,991.98
2019-04-04T03:57:04.074Z,991.97
2019-04-04T03:58:04.056Z,991.99
2019-04-04T03:59:04.047Z,991.96
2019-04-04T04:00:07.170Z,991.94
2019-04-04T04:01:04.062Z,991.95
2019-04-04T04:02:04.022Z,991.91
2019-04-04T04:03:04.007Z,991.97
2019-04-04T04:04:03.991Z,992.00
2019-04-04T04:05:03.981Z,991.94
2019-04-04T04:06:08.456Z,991.91
2019-04-04T04:07:03.978Z,991.96
2019-04-04T04:08:03.951Z,991.94
2019-04-04T04:09:03.949Z,991.95
2019-04-04T04:10:03.935Z,991.99
2019-04-04T04:11:05.764Z,991.98
2019-04-04T04:12:03.915Z,991.97
2019-04-04T04:13:03.896Z,991.95
2019-04-04T04:14:03.894Z,991.94
2019-04-04T04:15:03.882Z,992.01
2019-04-04T04:16:04.052Z,991.98
2019-04-04T04:17:03.874Z,991.99
2019-04-04T04:18:03.848Z,991.96
2019-04-04T04:19:03.839Z,991.93
2019-04-04T04:20:04.805Z,991.97
2019-04-04T04:21:03.813Z,991.94
2019-04-04T04:22:03.827Z,991.94
2019-04-04T04:23:03.797Z,991.91
2019-04-04T04:24:03.820Z,991.95
2019-04-04T04:25:03.904Z,991.95
2019-04-04T04:26:08.308Z,991.92
2019-04-04T04:27:04.743Z,991.93
2019-04-04T04:28:03.739Z,991.91
2019-04-04T04:29:03.740Z,991.91
2019-04-04T04:30:07.286Z,991.85
2019-04-04T04:31:03.707Z,991.92
2019-04-04T04:32:03.708Z,991.95
2019-04-04T04:33:03.720Z,991.90
2019-04-04T04:34:03.686Z,991.90
2019-04-04T04:35:07.388Z,991.92
2019-04-04T04:36:03.653Z,991.91
2019-04-04T04:37:03.639Z,991.87
2019-04-04T04:38:03.645Z,991.90
2019-04-04T04:39:03.636Z,991.83
2019-04-04T04:40:03.623Z,991.88
2019-04-04T04:41:03.621Z,991.87
2019-04-04T04:42:03.594Z,991.78
2019-04-04T04:43:03.595Z,991.83
2019-04-04T04:44:05.546Z,991.78
2019-04-04T04:45:03.554Z,991.81
2019-04-04T04:46:03.599Z,991.77
2019-04-04T04:47:03.543Z,991.73
2019-04-04T04:48:03.536Z,991.77
2019-04-04T04:49:04.297Z,991.76
2019-04-04T04:50:03.516Z,991.76
2019-04-04T04:51:03.488Z,991.75
2019-04-04T04:52:03.510Z,991.74
2019-04-04T04:53:03.482Z,991.73
2019-04-04T04:54:03.493Z,991.72
2019-04-04T04:55:03.457Z,991.72
2019-04-04T04:56:03.438Z,991.69
2019-04-04T04:57:04.771Z,991.76
2019-04-04T04:58:03.418Z,991.69
2019-04-04T04:59:03.402Z,991.69
2019-04-04T05:00:03.426Z,991.77
2019-04-04T05:01:03.390Z,991.82
2019-04-04T05:02:03.372Z,991.77
2019-04-04T05:03:03.361Z,991.83
2019-04-04T05:04:03.387Z,991.76
2019-04-04T05:05:03.352Z,991.86
2019-04-04T05:06:03.480Z,991.78
2019-04-04T05:07:07.083Z,991.66
2019-04-04T05:08:03.307Z,991.74
2019-04-04T05:09:03.304Z,991.69
2019-04-04T05:10:03.316Z,991.74
2019-04-04T05:11:03.282Z,991.65
2019-04-04T05:12:03.265Z,991.71
2019-04-04T05:13:03.265Z,991.69
2019-04-04T05:14:03.244Z,991.72
2019-04-04T05:15:03.253Z,991.70
2019-04-04T05:16:04.801Z,991.69
2019-04-04T05:17:03.224Z,991.77
2019-04-04T05:18:03.208Z,991.79
2019-04-04T05:19:03.192Z,991.77
2019-04-04T05:20:03.186Z,991.85
2019-04-04T05:21:03.176Z,991.80
2019-04-04T05:22:03.186Z,991.83
2019-04-04T05:23:03.152Z,991.79
2019-04-04T05:24:03.135Z,991.89
2019-04-04T05:25:08.494Z,991.87
2019-04-04T05:26:04.115Z,991.91
2019-04-04T05:27:03.999Z,991.91
2019-04-04T05:28:06.010Z,991.85
2019-04-04T05:29:03.090Z,991.84
2019-04-04T05:30:03.085Z,991.80
2019-04-04T05:31:03.068Z,991.79
2019-04-04T05:32:03.065Z,991.79
2019-04-04T05:33:03.070Z,991.77
2019-04-04T05:34:03.110Z,991.77
2019-04-04T05:35:03.038Z,991.79
2019-04-04T05:36:05.045Z,991.74
2019-04-04T05:37:02.998Z,991.79
2019-04-04T05:38:02.987Z,991.81
2019-04-04T05:39:03.012Z,991.77
2019-04-04T05:40:02.992Z,991.77
2019-04-04T05:41:02.958Z,991.64
2019-04-04T05:42:02.947Z,991.74
2019-04-04T05:43:04.100Z,991.75
2019-04-04T05:44:02.944Z,991.76
2019-04-04T05:45:02.912Z,991.73
2019-04-04T05:46:02.909Z,991.76
2019-04-04T05:47:02.890Z,991.87
2019-04-04T05:48:02.909Z,991.77
2019-04-04T05:49:07.711Z,991.77
2019-04-04T05:50:03.881Z,991.74
2019-04-04T05:51:02.868Z,991.69
2019-04-04T05:52:02.846Z,991.69
2019-04-04T05:53:04.193Z,991.65
2019-04-04T05:54:02.822Z,991.65
2019-04-04T05:55:02.829Z,991.62
2019-04-04T05:56:02.794Z,991.61
2019-04-04T05:57:03.379Z,991.59
2019-04-04T05:58:02.775Z,991.65
2019-04-04T05:59:02.762Z,991.54
2019-04-04T06:00:02.812Z,991.55
2019-04-04T06:01:02.755Z,991.57
2019-04-04T06:02:02.733Z,991.57
2019-04-04T06:03:02.731Z,991.58
2019-04-04T06:04:04.078Z,991.66
2019-04-04T06:05:02.695Z,991.55
2019-04-04T06:06:02.714Z,991.59
2019-04-04T06:07:04.336Z,991.58
2019-04-04T06:08:02.694Z,991.65
2019-04-04T06:09:02.703Z,991.64
2019-04-04T06:10:02.684Z,991.67
2019-04-04T06:11:03.601Z,991.65
2019-04-04T06:12:02.693Z,991.66
2019-04-04T06:13:02.656Z,991.67
2019-04-04T06:14:02.641Z,991.68
2019-04-04T06:15:02.641Z,991.67
2019-04-04T06:16:04.240Z,991.63
2019-04-04T06:17:02.652Z,991.61
2019-04-04T06:18:02.563Z,991.66
2019-04-04T06:19:02.555Z,991.71
2019-04-04T06:20:02.553Z,991.64
2019-04-04T06:21:02.568Z,991.67
2019-04-04T06:22:02.585Z,991.72
2019-04-04T06:23:02.534Z,991.68
2019-04-04T06:24:02.503Z,991.64
2019-04-04T06:25:02.522Z,991.66
2019-04-04T06:26:06.474Z,991.67
2019-04-04T06:27:02.476Z,991.62
2019-04-04T06:28:02.567Z,991.69
2019-04-04T06:29:05.436Z,991.64
2019-04-04T06:30:02.431Z,991.67
2019-04-04T06:31:02.420Z,991.66
2019-04-04T06:32:02.416Z,991.62
2019-04-04T06:33:04.845Z,991.70
2019-04-04T06:34:05.578Z,991.54
2019-04-04T06:35:02.385Z,991.62
2019-04-04T06:36:02.363Z,991.65
2019-04-04T06:37:02.359Z,991.62
2019-04-04T06:38:02.370Z,991.58
2019-04-04T06:39:02.375Z,991.60
2019-04-04T06:40:02.344Z,991.59
2019-04-04T06:41:02.311Z,991.59
2019-04-04T06:42:03.183Z,991.58
2019-04-04T06:43:03.787Z,991.63
2019-04-04T06:44:02.305Z,991.56
2019-04-04T06:45:02.277Z,991.65
2019-04-04T06:46:02.270Z,991.68
2019-04-04T06:47:02.311Z,991.66
2019-04-04T06:48:02.239Z,991.62
2019-04-04T06:49:04.402Z,991.58
2019-04-04T06:50:02.247Z,991.54
2019-04-04T06:51:02.206Z,991.60
2019-04-04T06:52:02.203Z,991.62
2019-04-04T06:53:02.192Z,991.63
2019-04-04T06:54:02.179Z,991.64
2019-04-04T06:55:02.161Z,991.60
2019-04-04T06:56:02.196Z,991.67
2019-04-04T06:57:03.994Z,991.77
2019-04-04T06:58:02.138Z,991.82
2019-04-04T06:59:02.129Z,991.75
2019-04-04T07:00:02.152Z,991.76
2019-04-04T07:01:02.102Z,991.77
2019-04-04T07:02:04.997Z,991.70
2019-04-04T07:03:02.074Z,991.77
2019-04-04T07:04:02.068Z,991.72
2019-04-04T07:05:02.132Z,991.64
2019-04-04T07:06:02.048Z,991.79
2019-04-04T07:07:02.058Z,991.79
2019-04-04T07:08:02.021Z,991.73
2019-04-04T07:09:02.011Z,991.82
2019-04-04T07:10:02.004Z,991.79
2019-04-04T07:11:03.304Z,991.74
2019-04-04T07:12:02.006Z,991.84
2019-04-04T07:13:14.895Z,991.78
2019-04-04T07:14:02.952Z,991.82
2019-04-04T07:15:01.945Z,991.84
2019-04-04T07:16:06.976Z,991.84
2019-04-04T07:17:03.038Z,991.75
2019-04-04T07:18:01.917Z,991.77
2019-04-04T07:19:01.907Z,991.65
2019-04-04T07:20:02.665Z,991.70
2019-04-04T07:21:03.610Z,991.74
2019-04-04T07:22:01.912Z,991.73
2019-04-04T07:23:02.199Z,991.68
2019-04-04T07:24:01.851Z,991.74
2019-04-04T07:25:05.769Z,991.61
2019-04-04T07:26:02.825Z,991.71
2019-04-04T07:27:01.831Z,991.74
2019-04-04T07:28:01.813Z,991.66
2019-04-04T07:29:01.825Z,991.59
2019-04-04T07:30:01.794Z,991.67
2019-04-04T07:31:02.492Z,991.70
2019-04-04T07:32:01.771Z,991.42
2019-04-04T07:33:01.750Z,991.58
2019-04-04T07:34:01.784Z,991.53
2019-04-04T07:35:01.734Z,991.57
2019-04-04T07:36:01.726Z,991.63
2019-04-04T07:37:01.718Z,991.60
2019-04-04T07:38:01.706Z,991.67
2019-04-04T07:39:01.716Z,991.71
2019-04-04T07:40:03.545Z,991.64
2019-04-04T07:41:01.664Z,991.60
2019-04-04T07:42:01.666Z,991.58
2019-04-04T07:43:01.672Z,991.69
2019-04-04T07:44:01.653Z,991.62
2019-04-04T07:45:01.653Z,991.57
2019-04-04T07:46:15.280Z,991.63
2019-04-04T07:47:02.604Z,991.65
2019-04-04T07:48:01.599Z,991.69
2019-04-04T07:49:01.585Z,991.75
2019-04-04T07:50:01.595Z,991.54
2019-04-04T07:51:01.566Z,991.64
2019-04-04T07:52:02.316Z,991.64
2019-04-04T07:53:03.904Z,991.67
2019-04-04T07:54:01.553Z,991.58
2019-04-04T07:55:01.533Z,991.68
2019-04-04T07:56:01.543Z,991.69
2019-04-04T07:57:01.501Z,991.57
2019-04-04T07:58:01.489Z,991.59
2019-04-04T07:59:01.480Z,991.51
2019-04-04T08:00:01.470Z,991.61
2019-04-04T08:01:01.456Z,991.58
2019-04-04T08:02:01.479Z,991.61
2019-04-04T08:03:01.435Z,991.67
2019-04-04T08:04:01.422Z,991.69
2019-04-04T08:05:01.413Z,991.53
2019-04-04T08:06:01.404Z,991.38
2019-04-04T08:07:01.395Z,991.51
2019-04-04T08:08:01.404Z,991.65
2019-04-04T08:09:01.374Z,991.75
2019-04-04T08:10:01.367Z,991.67
2019-04-04T08:11:01.352Z,991.59
2019-04-04T08:12:01.360Z,991.61
2019-04-04T08:13:01.338Z,991.63
2019-04-04T08:14:01.321Z,991.67
2019-04-04T08:15:01.312Z,991.47
2019-04-04T08:16:01.300Z,991.57
2019-04-04T08:17:01.305Z,991.67
2019-04-04T08:18:01.282Z,991.69
2019-04-04T08:19:01.264Z,991.73
2019-04-04T08:20:01.256Z,991.60
2019-04-04T08:21:01.249Z,991.80
2019-04-04T08:22:01.286Z,991.74
2019-04-04T08:23:01.223Z,991.63
2019-04-04T08:24:01.221Z,991.62
2019-04-04T08:25:01.202Z,991.67
2019-04-04T08:26:01.194Z,991.59
2019-04-04T08:27:01.206Z,991.49
2019-04-04T08:28:01.170Z,991.58
2019-04-04T08:29:01.163Z,991.70
2019-04-04T08:30:01.181Z,991.63
2019-04-04T08:31:01.139Z,991.61
2019-04-04T08:32:01.132Z,991.63
2019-04-04T08:33:01.119Z,991.67
2019-04-04T08:34:01.106Z,991.69
2019-04-04T08:35:01.096Z,991.63
2019-04-04T08:36:06.373Z,991.67
2019-04-04T08:37:02.076Z,991.70
2019-04-04T08:38:01.063Z,991.80
2019-04-04T08:39:01.052Z,991.72
2019-04-04T08:40:01.043Z,991.80
2019-04-04T08:41:01.056Z,991.74
2019-04-04T08:42:01.022Z,991.83
2019-04-04T08:43:01.012Z,991.73
2019-04-04T08:44:01.004Z,991.80
2019-04-04T08:45:00.987Z,991.89
2019-04-04T08:46:01.024Z,991.85
2019-04-04T08:47:00.968Z,991.84
2019-04-04T08:48:00.959Z,991.84
2019-04-04T08:49:00.953Z,991.87
2019-04-04T08:50:00.942Z,991.84
2019-04-04T08:51:00.927Z,991.84
2019-04-04T08:52:00.961Z,991.92
2019-04-04T08:53:00.923Z,991.96
2019-04-04T08:54:00.897Z,991.95
2019-04-04T08:55:00.885Z,991.94
2019-04-04T08:56:00.874Z,991.98
2019-04-04T08:57:00.900Z,991.97
2019-04-04T08:58:00.865Z,991.99
2019-04-04T08:59:00.864Z,991.92
2019-04-04T09:00:00.835Z,991.95
2019-04-04T09:01:00.825Z,991.96
2019-04-04T09:02:00.820Z,991.98
2019-04-04T09:03:00.838Z,991.94
2019-04-04T09:04:00.792Z,991.97
2019-04-04T09:05:11.264Z,991.91
2019-04-04T09:06:01.793Z,991.96
2019-04-04T09:07:00.764Z,991.95
2019-04-04T09:08:00.755Z,991.94
2019-04-04T09:09:00.767Z,991.94
2019-04-04T09:10:00.732Z,991.92
2019-04-04T09:11:00.725Z,991.89
2019-04-04T09:12:00.710Z,991.91
2019-04-04T09:13:00.703Z,991.86
2019-04-04T09:14:00.716Z,991.94
2019-04-04T09:15:00.704Z,991.94
2019-04-04T09:16:00.678Z,991.92
2019-04-04T09:17:00.729Z,991.89
2019-04-04T09:18:00.648Z,991.93
2019-04-04T09:19:00.643Z,991.91
2019-04-04T09:20:00.807Z,991.93
2019-04-04T09:21:00.622Z,991.93
2019-04-04T09:22:00.608Z,991.79
2019-04-04T09:23:00.602Z,991.88
2019-04-04T09:24:00.915Z,991.95
2019-04-04T09:25:01.594Z,991.96
2019-04-04T09:26:05.819Z,992.06
2019-04-04T09:27:01.563Z,991.95
2019-04-04T09:28:00.553Z,991.96
2019-04-04T09:29:00.538Z,991.91
2019-04-04T09:30:00.526Z,991.89
2019-04-04T09:31:00.540Z,991.89
2019-04-04T09:32:00.521Z,991.94
2019-04-04T09:33:00.499Z,991.85
2019-04-04T09:34:00.491Z,992.02
2019-04-04T09:35:00.504Z,991.70
2019-04-04T09:36:00.823Z,991.91
2019-04-04T09:37:00.459Z,991.87
2019-04-04T09:38:00.450Z,991.87
2019-04-04T09:39:00.435Z,991.85
2019-04-04T09:40:00.826Z,991.84
2019-04-04T09:41:00.437Z,991.88
2019-04-04T09:42:00.406Z,991.90
2019-04-04T09:43:00.399Z,991.96
2019-04-04T09:44:00.396Z,991.95
2019-04-04T09:45:00.374Z,991.82
2019-04-04T09:46:00.403Z,991.92
2019-04-04T09:47:05.670Z,991.91
2019-04-04T09:48:01.346Z,991.90
2019-04-04T09:49:00.336Z,991.94
2019-04-04T09:50:00.333Z,991.93
2019-04-04T09:51:00.345Z,991.93
2019-04-04T09:52:00.328Z,991.93
2019-04-04T09:53:00.317Z,991.88
2019-04-04T09:54:00.289Z,991.85
2019-04-04T09:55:00.280Z,991.76
2019-04-04T09:56:00.272Z,991.87
2019-04-04T09:57:00.280Z,991.80
2019-04-04T09:58:00.247Z,991.77
2019-04-04T09:59:00.234Z,991.76
2019-04-04T10:00:00.228Z,991.74
2019-04-04T10:01:00.221Z,991.66
2019-04-04T10:02:00.228Z,991.68
2019-04-04T10:03:00.228Z,991.76
2019-04-04T10:04:00.191Z,991.74
2019-04-04T10:05:00.178Z,991.71
2019-04-04T10:06:00.166Z,991.70
2019-04-04T10:07:00.160Z,991.64
2019-04-04T10:08:00.359Z,991.59
2019-04-04T10:09:00.175Z,991.66
2019-04-04T10:10:00.129Z,991.79
2019-04-04T10:11:00.116Z,991.74
2019-04-04T10:12:00.107Z,991.72
2019-04-04T10:13:00.097Z,991.58
2019-04-04T10:14:00.091Z,991.68
2019-04-04T10:15:00.102Z,991.73
2019-04-04T10:16:00.068Z,991.80
2019-04-04T10:17:00.745Z,991.65
2019-04-04T10:18:00.070Z,991.78
2019-04-04T10:19:00.037Z,991.78
2019-04-04T10:20:00.031Z,991.83
2019-04-04T10:21:11.094Z,991.78
2019-04-04T10:22:01.006Z,991.84
2019-04-04T10:23:00.023Z,991.78
2019-04-04T10:23:59.995Z,991.83
2019-04-04T10:24:59.976Z,991.86
2019-04-04T10:25:59.995Z,991.77
2019-04-04T10:27:00.008Z,991.80
2019-04-04T10:27:59.947Z,991.67
2019-04-04T10:28:59.954Z,991.44
2019-04-04T10:29:59.941Z,991.51
2019-04-04T10:30:59.917Z,991.65
2019-04-04T10:31:59.925Z,991.57
2019-04-04T10:32:59.899Z,991.70
2019-04-04T10:33:59.923Z,991.82
2019-04-04T10:34:59.885Z,991.79
2019-04-04T10:35:59.870Z,991.79
2019-04-04T10:36:59.855Z,991.84
2019-04-04T10:37:59.846Z,991.80
2019-04-04T10:38:59.842Z,991.66
2019-04-04T10:39:59.847Z,991.64
2019-04-04T10:40:59.817Z,991.79
2019-04-04T10:41:59.830Z,991.77
2019-04-04T10:42:59.798Z,991.69
2019-04-04T10:43:59.790Z,991.65
2019-04-04T10:44:59.809Z,991.67
2019-04-04T10:45:59.768Z,991.65
2019-04-04T10:46:59.759Z,991.71
2019-04-04T10:47:59.750Z,991.75
2019-04-04T10:48:59.741Z,991.77
2019-04-04T10:49:59.734Z,991.83
2019-04-04T10:50:59.738Z,991.75
2019-04-04T10:51:59.709Z,991.75
2019-04-04T10:52:59.698Z,991.79
2019-04-04T10:53:59.687Z,991.78
2019-04-04T10:55:01.548Z,991.81
2019-04-04T10:55:59.692Z,991.78
2019-04-04T10:56:59.658Z,991.74
2019-04-04T10:57:59.657Z,991.82
2019-04-04T10:58:59.639Z,991.77
2019-04-04T11:00:03.002Z,991.86
2019-04-04T11:00:59.637Z,991.85
2019-04-04T11:02:00.933Z,991.79
2019-04-04T11:02:59.621Z,991.88
2019-04-04T11:03:59.597Z,991.86
2019-04-04T11:04:59.582Z,991.77
2019-04-04T11:05:59.572Z,991.75
2019-04-04T11:06:59.574Z,991.80
2019-04-04T11:07:59.567Z,991.85
2019-04-04T11:08:59.537Z,991.84
2019-04-04T11:09:59.534Z,991.83
2019-04-04T11:10:59.548Z,991.74
2019-04-04T11:11:59.507Z,991.73
2019-04-04T11:12:59.500Z,991.77
2019-04-04T11:13:59.487Z,991.79
2019-04-04T11:14:59.479Z,991.88
2019-04-04T11:15:59.472Z,991.74
2019-04-04T11:16:59.478Z,991.71
2019-04-04T11:17:59.467Z,991.81
2019-04-04T11:18:59.436Z,991.78
2019-04-04T11:19:59.431Z,991.72
2019-04-04T11:20:59.426Z,991.73
2019-04-04T11:21:59.409Z,991.72
2019-04-04T11:22:59.416Z,991.75
2019-04-04T11:23:59.386Z,991.69
2019-04-04T11:24:59.390Z,991.53
2019-04-04T11:25:59.373Z,991.42
2019-04-04T11:26:59.359Z,991.41
2019-04-04T11:27:59.465Z,991.66
2019-04-04T11:28:59.367Z,991.79
2019-04-04T11:29:59.344Z,991.84
2019-04-04T11:30:59.322Z,991.73
2019-04-04T11:31:59.331Z,991.37
2019-04-04T11:32:59.315Z,991.54
2019-04-04T11:33:59.355Z,991.77
2019-04-04T11:34:59.280Z,991.86
2019-04-04T11:35:59.271Z,991.81
2019-04-04T11:36:59.791Z,991.85
2019-04-04T11:37:59.255Z,991.82
2019-04-04T11:38:59.239Z,991.80
2019-04-04T11:39:59.272Z,991.85
2019-04-04T11:40:59.217Z,991.83
2019-04-04T11:41:59.241Z,991.86
2019-04-04T11:42:59.217Z,991.81
2019-04-04T11:43:59.868Z,991.69
2019-04-04T11:44:59.187Z,991.52
2019-04-04T11:45:59.169Z,991.59
2019-04-04T11:46:59.156Z,991.67
2019-04-04T11:47:59.184Z,991.70
2019-04-04T11:48:59.138Z,991.73
2019-04-04T11:49:59.131Z,991.60
2019-04-04T11:50:59.173Z,991.61
2019-04-04T11:51:59.132Z,991.64
2019-04-04T11:52:59.102Z,991.52
2019-04-04T11:53:59.088Z,991.36
2019-04-04T11:54:59.087Z,991.23
2019-04-04T11:55:59.072Z,991.18
2019-04-04T11:56:59.075Z,991.36
2019-04-04T11:57:59.089Z,991.33
2019-04-04T11:58:59.037Z,991.28
2019-04-04T11:59:59.028Z,991.39
2019-04-04T12:00:59.020Z,991.46
2019-04-04T12:01:59.013Z,991.36
2019-04-04T12:02:59.029Z,991.14
2019-04-04T12:03:58.991Z,991.26
2019-04-04T12:04:59.028Z,991.16
2019-04-04T12:05:58.971Z,991.12
2019-04-04T12:06:58.963Z,991.00
2019-04-04T12:07:58.976Z,990.93
2019-04-04T12:08:58.951Z,990.95
2019-04-04T12:10:07.401Z,990.96
2019-04-04T12:10:59.921Z,991.06
2019-04-04T12:11:58.911Z,991.10
2019-04-04T12:12:58.920Z,991.00
2019-04-04T12:13:58.887Z,991.16
2019-04-04T12:14:58.907Z,991.13
2019-04-04T12:15:58.868Z,991.34
2019-04-04T12:16:58.875Z,991.31
2019-04-04T12:17:58.854Z,991.13
2019-04-04T12:18:58.836Z,990.99
2019-04-04T12:19:58.827Z,990.96
2019-04-04T12:20:58.837Z,990.85
2019-04-04T12:21:58.858Z,991.15
2019-04-04T12:22:58.799Z,991.22
2019-04-04T12:23:58.789Z,991.32
2019-04-04T12:24:58.778Z,991.26
2019-04-04T12:25:58.792Z,991.41
2019-04-04T12:26:58.759Z,991.57
2019-04-04T12:27:58.749Z,991.52